To NAV CANADA Home Page Login to a new session Search on AWWS site Feedback and Comments Disclaimer Vers la page française équivalente Tips FAQ What's new on the site To the Forecasts and Observations / NOTAM section To "File a Flight Plan" website Publications and other links Update of the User's profile FIC Telephone Numbers My Weather Data Folder Route Weather Data Regional Weather Data Local Weather Data To the Forecasts and Observations / NOTAM section
Request Generated 12/10/2016 at 16:30:40 UTC . Weather information available at that time is displayed.

METAR/TAF

TORONTO/BILLY BISHOP TORONTO CITY AIRPORT/ON    (show WxCam)

METAR CYTZ 101600Z AUTO VRB02KT 9SM -SN FEW024 SCT034 SCT060 OVC076
M03/M07 A3036 RMK SLP288=
METAR CYTZ 101500Z AUTO 00000KT 9SM -SN SCT025 OVC034 M04/M07 A3037
RMK SLP290=
SPECI CYTZ 101422Z AUTO 00000KT 9SM -SN OVC039 M04/M08 A3036 RMK
SLP288=
SPECI CYTZ 101419Z AUTO 00000KT 9SM BKN039 OVC050 M04/M08 A3036 RMK
SLP287=
METAR CYTZ 101400Z AUTO 00000KT 9SM -SN BKN030 BKN047 OVC055 M04/M08
A3036 RMK SLP286=

TAF CYTZ 101338Z 1014/1114 31005KT 6SM -SN OVC040 TEMPO 1014/1020 2SM
-SN OVC025
BECMG 1016/1018 25018G28KT
FM102000 26018G28KT P6SM FEW030
BECMG 1102/1104 26012KT BKN220
RMK FCST BASED ON AUTO OBS. NXT FCST BY 102000Z=
Your time UTC time
Weather data provided by Environment Canada and NAV CANADA